createdAt,value
2023-01-09T00:03:29.655Z,18.15
2023-01-09T00:07:01.849Z,19.27
2023-01-09T00:10:33.743Z,19.48
2023-01-09T00:14:05.897Z,18.63
2023-01-09T00:17:37.977Z,21.13
2023-01-09T00:21:11.730Z,20.30
2023-01-09T00:24:43.428Z,21.10
2023-01-09T00:28:15.492Z,20.90
2023-01-09T00:31:47.737Z,19.90
2023-01-09T00:35:19.963Z,21.08
2023-01-09T00:38:52.276Z,19.98
2023-01-09T00:42:28.479Z,20.33
2023-01-09T00:46:01.902Z,20.50
2023-01-09T00:49:36.886Z,19.42
2023-01-09T00:53:17.250Z,18.80
2023-01-09T00:56:50.238Z,20.73
2023-01-09T01:00:22.050Z,19.98
2023-01-09T01:03:54.164Z,21.10
2023-01-09T01:07:42.899Z,21.92
2023-01-09T01:11:15.074Z,20.73
2023-01-09T01:14:47.076Z,19.30
2023-01-09T01:18:19.156Z,19.77
2023-01-09T01:21:51.079Z,19.17
2023-01-09T01:25:23.541Z,20.70
2023-01-09T01:28:55.263Z,18.33
2023-01-09T01:32:27.647Z,19.80
2023-01-09T01:36:09.256Z,19.38
2023-01-09T01:39:41.741Z,18.60
2023-01-09T01:43:13.750Z,18.70
2023-01-09T01:46:45.832Z,20.42
2023-01-09T01:50:35.515Z,19.55
2023-01-09T01:54:12.357Z,19.27
2023-01-09T01:57:48.330Z,20.08
2023-01-09T02:01:21.254Z,19.02
2023-01-09T02:04:55.987Z,18.57
2023-01-09T02:08:28.030Z,16.73
2023-01-09T02:12:00.962Z,15.98
2023-01-09T02:15:48.520Z,19.07
2023-01-09T02:20:04.914Z,17.95
2023-01-09T02:24:10.413Z,17.88
2023-01-09T02:28:29.470Z,17.45
2023-01-09T02:32:17.917Z,17.07
2023-01-09T02:36:05.083Z,16.88
2023-01-09T02:40:01.831Z,17.98
2023-01-09T02:43:34.312Z,17.00
2023-01-09T02:47:07.882Z,17.30
2023-01-09T02:50:48.250Z,16.48
2023-01-09T02:54:23.456Z,18.57
2023-01-09T02:58:10.141Z,16.67
2023-01-09T03:01:52.227Z,16.08
2023-01-09T03:05:37.404Z,16.98
2023-01-09T03:09:17.519Z,17.13
2023-01-09T03:12:53.205Z,18.08
2023-01-09T03:16:32.033Z,19.75
2023-01-09T03:20:07.303Z,16.40
2023-01-09T03:23:56.761Z,17.90
2023-01-09T03:27:28.518Z,18.83
2023-01-09T03:31:00.514Z,17.63
2023-01-09T03:34:32.332Z,16.10
2023-01-09T03:38:06.547Z,17.50
2023-01-09T03:41:39.014Z,18.00
2023-01-09T03:45:11.553Z,17.03
2023-01-09T03:48:43.708Z,15.98
2023-01-09T03:52:16.152Z,15.25
2023-01-09T03:55:50.089Z,15.67
2023-01-09T03:59:22.098Z,15.95
2023-01-09T04:02:53.812Z,13.90
2023-01-09T04:06:26.113Z,14.63
2023-01-09T04:09:58.007Z,14.60
2023-01-09T04:13:30.412Z,14.68
2023-01-09T04:17:02.361Z,14.50
2023-01-09T04:20:34.973Z,14.03
2023-01-09T04:24:07.119Z,15.07
2023-01-09T04:27:40.257Z,15.07
2023-01-09T04:31:12.192Z,12.63
2023-01-09T04:34:44.229Z,14.48
2023-01-09T04:38:15.971Z,13.82
2023-01-09T04:41:51.389Z,14.67
2023-01-09T04:45:23.211Z,14.30
2023-01-09T04:48:55.599Z,14.48
2023-01-09T04:52:28.056Z,15.27
2023-01-09T04:56:00.465Z,13.60
2023-01-09T04:59:32.650Z,14.82
2023-01-09T05:03:04.687Z,15.52
2023-01-09T05:06:36.696Z,13.33
2023-01-09T05:10:10.401Z,15.20
2023-01-09T05:13:42.600Z,14.48
2023-01-09T05:17:14.840Z,16.43
2023-01-09T05:20:46.938Z,15.20
2023-01-09T05:24:19.277Z,14.73
2023-01-09T05:27:51.008Z,15.32
2023-01-09T05:31:24.564Z,16.17
2023-01-09T05:34:56.398Z,14.13
2023-01-09T05:38:28.799Z,13.88
2023-01-09T05:42:00.846Z,13.40
2023-01-09T05:45:33.915Z,15.32
2023-01-09T05:49:06.127Z,14.15
2023-01-09T05:52:38.469Z,15.27
2023-01-09T05:56:11.803Z,16.17
2023-01-09T05:59:44.119Z,16.20
2023-01-09T06:03:15.904Z,16.42
2023-01-09T06:06:47.896Z,16.20
2023-01-09T06:10:19.752Z,16.25
2023-01-09T06:13:51.730Z,16.92
2023-01-09T06:17:23.415Z,15.63
2023-01-09T06:20:56.059Z,15.50
2023-01-09T06:24:28.493Z,17.77
2023-01-09T06:28:00.790Z,17.20
2023-01-09T06:31:32.599Z,17.27
2023-01-09T06:35:05.343Z,18.08
2023-01-09T06:38:37.085Z,17.50
2023-01-09T06:42:09.206Z,18.03
2023-01-09T06:45:43.604Z,17.77
2023-01-09T06:49:16.878Z,17.15
2023-01-09T06:52:48.588Z,17.50
2023-01-09T06:56:20.607Z,16.38
2023-01-09T06:59:53.028Z,17.05
2023-01-09T07:03:24.981Z,17.10
2023-01-09T07:06:56.815Z,17.23
2023-01-09T07:10:29.068Z,16.00
2023-01-09T07:14:00.790Z,17.35
2023-01-09T07:17:33.499Z,19.77
2023-01-09T07:21:08.739Z,19.77
2023-01-09T07:24:40.811Z,20.05
2023-01-09T07:28:12.773Z,18.00
2023-01-09T07:31:44.763Z,19.08
2023-01-09T07:35:16.651Z,21.17
2023-01-09T07:38:48.863Z,19.67
2023-01-09T07:42:20.841Z,22.58
2023-01-09T07:45:53.095Z,21.35
2023-01-09T07:49:26.767Z,22.67
2023-01-09T07:52:59.066Z,20.53
2023-01-09T07:56:30.943Z,22.98
2023-01-09T08:00:06.774Z,22.88
2023-01-09T08:03:38.918Z,21.80
2023-01-09T08:07:11.063Z,22.60
2023-01-09T08:10:43.850Z,21.50
2023-01-09T08:14:15.522Z,22.33
2023-01-09T08:17:47.610Z,21.45
2023-01-09T08:21:21.416Z,21.20
2023-01-09T08:24:53.437Z,22.90
2023-01-09T08:28:25.396Z,23.50
2023-01-09T08:31:57.544Z,23.30
2023-01-09T08:35:29.253Z,21.55
2023-01-09T08:39:01.669Z,22.03
2023-01-09T08:42:52.291Z,22.63
2023-01-09T08:46:43.564Z,23.10
2023-01-09T08:50:15.438Z,21.57
2023-01-09T08:53:48.563Z,25.00
2023-01-09T08:57:20.347Z,24.98
2023-01-09T09:00:52.396Z,23.00
2023-01-09T09:04:24.416Z,24.60
2023-01-09T09:07:56.924Z,24.15
2023-01-09T09:11:30.559Z,23.38
2023-01-09T09:15:16.633Z,22.60
2023-01-09T09:18:48.345Z,22.65
2023-01-09T09:22:20.553Z,22.35
2023-01-09T09:25:52.518Z,23.80
2023-01-09T09:29:24.953Z,21.52
2023-01-09T09:32:56.734Z,22.00
2023-01-09T09:36:29.963Z,21.20
2023-01-09T09:40:13.287Z,24.33
2023-01-09T09:44:19.904Z,29.33
2023-01-09T09:48:26.737Z,23.13
2023-01-09T09:52:01.948Z,21.20
2023-01-09T09:55:36.374Z,23.33
2023-01-09T09:59:17.692Z,22.60
2023-01-09T10:02:55.967Z,24.47
2023-01-09T10:06:37.421Z,24.50
2023-01-09T10:10:27.092Z,25.30
2023-01-09T10:14:08.220Z,23.63
2023-01-09T10:17:48.385Z,25.77
2023-01-09T10:21:40.568Z,25.83
2023-01-09T10:25:28.732Z,23.45
2023-01-09T10:29:36.588Z,24.93
2023-01-09T10:33:27.036Z,26.45
2023-01-09T10:37:05.643Z,27.00
2023-01-09T10:40:43.714Z,28.00
2023-01-09T10:44:27.275Z,26.65
2023-01-09T10:48:21.776Z,28.70
2023-01-09T10:52:16.713Z,28.92
2023-01-09T10:55:54.776Z,28.27
2023-01-09T10:59:26.994Z,27.35
2023-01-09T11:02:59.281Z,29.20
2023-01-09T11:06:46.545Z,28.23
2023-01-09T11:10:19.564Z,27.98
2023-01-09T11:14:04.395Z,27.00
2023-01-09T11:17:36.459Z,28.83
2023-01-09T11:21:33.003Z,29.65
2023-01-09T11:25:12.551Z,27.85
2023-01-09T11:28:44.671Z,28.13
2023-01-09T11:32:23.402Z,26.10
2023-01-09T11:35:56.762Z,28.17
2023-01-09T11:39:32.517Z,28.55
2023-01-09T11:43:13.143Z,28.87
2023-01-09T11:46:46.619Z,27.45
2023-01-09T11:50:27.714Z,28.38
2023-01-09T11:54:31.404Z,28.83
2023-01-09T11:58:03.926Z,28.33
2023-01-09T12:02:17.952Z,27.70
2023-01-09T12:05:59.424Z,26.55
2023-01-09T12:10:01.506Z,27.33
2023-01-09T12:14:11.002Z,28.17
2023-01-09T12:18:23.703Z,26.40
2023-01-09T12:22:20.506Z,24.83
2023-01-09T12:26:01.807Z,26.83
2023-01-09T12:30:00.931Z,24.90
2023-01-09T12:34:07.019Z,26.50
2023-01-09T12:37:47.714Z,26.17
2023-01-09T12:41:38.554Z,26.35
2023-01-09T12:45:19.444Z,25.08
2023-01-09T12:49:15.467Z,25.03
2023-01-09T12:53:03.006Z,25.35
2023-01-09T12:56:43.621Z,27.23
2023-01-09T13:00:24.197Z,24.77
2023-01-09T13:04:17.354Z,26.15
2023-01-09T13:08:16.040Z,20.88
2023-01-09T13:12:00.961Z,22.20
2023-01-09T13:19:39.964Z,23.67
2023-01-09T13:23:30.950Z,25.33
2023-01-09T13:27:11.258Z,23.97
2023-01-09T13:30:58.812Z,24.85
2023-01-09T13:34:35.509Z,24.90
2023-01-09T13:38:18.055Z,23.33
2023-01-09T13:42:19.599Z,22.88
2023-01-09T13:45:53.062Z,28.40
2023-01-09T13:49:40.398Z,31.13
2023-01-09T13:53:17.987Z,22.95
2023-01-09T13:57:19.676Z,23.65
2023-01-09T14:00:55.802Z,23.27
2023-01-09T14:04:40.720Z,27.03
2023-01-09T14:08:18.579Z,23.02
2023-01-09T14:12:03.594Z,19.10
2023-01-09T14:15:41.375Z,18.07
2023-01-09T14:19:16.595Z,20.63
2023-01-09T14:23:05.247Z,18.75
2023-01-09T14:26:46.689Z,19.70
2023-01-09T14:30:28.851Z,20.20
2023-01-09T14:34:36.169Z,17.98
2023-01-09T14:38:28.061Z,20.75
2023-01-09T14:42:09.150Z,20.37
2023-01-09T14:45:49.647Z,19.25
2023-01-09T14:49:27.564Z,21.05
2023-01-09T14:53:14.389Z,20.97
2023-01-09T14:56:49.686Z,21.98
2023-01-09T15:00:23.280Z,20.08
2023-01-09T15:04:01.986Z,19.13
2023-01-09T15:07:40.995Z,18.90
2023-01-09T15:11:14.359Z,19.02
2023-01-09T15:14:51.537Z,21.25
2023-01-09T15:18:26.156Z,20.07
2023-01-09T15:22:06.581Z,18.67
2023-01-09T15:25:40.809Z,21.35
2023-01-09T15:29:17.927Z,18.80
2023-01-09T15:32:52.255Z,21.05
2023-01-09T15:36:26.317Z,20.52
2023-01-09T15:40:00.631Z,20.93
2023-01-09T15:43:34.068Z,20.10
2023-01-09T15:47:11.050Z,18.92
2023-01-09T15:50:44.387Z,20.80
2023-01-09T15:54:23.845Z,19.13
2023-01-09T15:57:55.663Z,17.35
2023-01-09T16:01:33.944Z,18.52
2023-01-09T16:05:20.183Z,18.20
2023-01-09T16:08:56.318Z,17.95
2023-01-09T16:12:29.100Z,16.70
2023-01-09T16:16:02.311Z,15.53
2023-01-09T16:20:11.259Z,17.20
2023-01-09T16:23:52.867Z,16.30
2023-01-09T16:27:27.317Z,14.98
2023-01-09T16:31:09.993Z,14.30
2023-01-09T16:34:42.447Z,13.40
2023-01-09T16:38:15.478Z,13.95
2023-01-09T16:42:06.279Z,13.97
2023-01-09T16:45:42.432Z,13.88
2023-01-09T16:49:19.217Z,13.70
2023-01-09T16:52:52.536Z,12.83
2023-01-09T16:56:27.662Z,13.13
2023-01-09T17:00:00.602Z,14.75
2023-01-09T17:03:32.863Z,16.52
2023-01-09T17:07:05.060Z,14.87
2023-01-09T17:10:37.012Z,15.65
2023-01-09T17:14:12.275Z,12.68
2023-01-09T17:17:44.236Z,12.60
2023-01-09T17:21:20.104Z,13.63
2023-01-09T17:25:10.362Z,13.73
2023-01-09T17:28:49.256Z,12.10
2023-01-09T17:32:20.981Z,14.18
2023-01-09T17:35:53.705Z,14.50
2023-01-09T17:39:25.401Z,15.68
2023-01-09T17:42:57.620Z,13.13
2023-01-09T17:46:32.485Z,11.57
2023-01-09T17:50:05.870Z,11.43
2023-01-09T17:53:37.678Z,11.20
2023-01-09T17:57:15.840Z,11.02
2023-01-09T18:00:47.913Z,9.57
2023-01-09T18:04:20.196Z,10.93
2023-01-09T18:07:52.164Z,10.65
2023-01-09T18:11:24.433Z,10.50
2023-01-09T18:14:56.291Z,10.15
2023-01-09T18:18:29.459Z,9.93
2023-01-09T18:22:01.221Z,10.18
2023-01-09T18:25:33.343Z,9.90
2023-01-09T18:29:05.548Z,8.83
2023-01-09T18:32:37.712Z,7.97
2023-01-09T18:36:10.072Z,9.13
2023-01-09T18:39:42.121Z,8.73
2023-01-09T18:43:14.441Z,9.38
2023-01-09T18:46:47.089Z,5.70
2023-01-09T18:50:19.219Z,5.68
2023-01-09T18:53:52.455Z,10.63
2023-01-09T18:57:24.360Z,9.90
2023-01-09T19:00:56.706Z,9.77
2023-01-09T19:04:28.683Z,10.50
2023-01-09T19:08:00.882Z,9.18
2023-01-09T19:11:32.966Z,9.73
2023-01-09T19:15:11.076Z,8.70
2023-01-09T19:18:43.531Z,9.05
2023-01-09T19:22:15.649Z,8.98
2023-01-09T19:25:48.169Z,9.00
2023-01-09T19:29:20.178Z,9.03
2023-01-09T19:32:52.249Z,8.15
2023-01-09T19:36:25.237Z,8.63
2023-01-09T19:39:56.947Z,5.37
2023-01-09T19:43:29.006Z,7.53
2023-01-09T19:47:00.871Z,7.70
2023-01-09T19:50:33.015Z,7.33
2023-01-09T19:57:35.937Z,7.90
2023-01-09T20:01:11.765Z,7.25
2023-01-09T20:04:43.903Z,7.67
2023-01-09T20:08:17.432Z,7.30
2023-01-09T20:11:49.342Z,7.80
2023-01-09T20:15:22.739Z,7.67
2023-01-09T20:18:57.708Z,7.43
2023-01-09T20:22:30.242Z,8.43
2023-01-09T20:26:02.399Z,7.80
2023-01-09T20:29:36.156Z,9.25
2023-01-09T20:33:08.580Z,10.07
2023-01-09T20:36:40.534Z,12.57
2023-01-09T20:40:12.740Z,12.33
2023-01-09T20:43:44.571Z,14.65
2023-01-09T20:47:16.688Z,12.80
2023-01-09T20:50:48.424Z,12.77
2023-01-09T20:54:21.707Z,13.52
2023-01-09T20:57:53.504Z,13.32
2023-01-09T21:01:26.643Z,13.00
2023-01-09T21:04:58.565Z,13.68
2023-01-09T21:08:30.698Z,15.32
2023-01-09T21:12:02.439Z,16.05
2023-01-09T21:15:36.991Z,13.63
2023-01-09T21:19:09.382Z,14.05
2023-01-09T21:22:47.016Z,13.70
2023-01-09T21:26:22.634Z,12.60
2023-01-09T21:29:54.872Z,15.45
2023-01-09T21:33:26.851Z,14.82
2023-01-09T21:36:59.131Z,15.33
2023-01-09T21:40:30.902Z,18.42
2023-01-09T21:44:21.550Z,15.88
2023-01-09T21:47:53.344Z,12.57
2023-01-09T21:51:26.152Z,13.53
2023-01-09T21:54:58.051Z,12.27
2023-01-09T21:58:30.064Z,12.27
2023-01-09T22:02:02.132Z,12.57
2023-01-09T22:05:37.251Z,13.80
2023-01-09T22:09:10.150Z,15.35
2023-01-09T22:13:02.440Z,13.70
2023-01-09T22:16:34.280Z,13.55
2023-01-09T22:20:07.039Z,13.60
2023-01-09T22:23:38.951Z,14.32
2023-01-09T22:27:11.399Z,13.50
2023-01-09T22:30:43.105Z,14.07
2023-01-09T22:34:17.085Z,11.85
2023-01-09T22:37:49.282Z,11.30
2023-01-09T22:41:21.877Z,11.45
2023-01-09T22:44:54.093Z,11.95
2023-01-09T22:48:28.878Z,11.87
2023-01-09T22:52:00.779Z,12.68
2023-01-09T22:55:32.998Z,14.18
2023-01-09T22:59:04.963Z,12.48
2023-01-09T23:02:37.156Z,13.17
2023-01-09T23:06:12.728Z,15.00
2023-01-09T23:09:44.935Z,15.52
2023-01-09T23:13:16.845Z,15.10
2023-01-09T23:16:49.175Z,15.10
2023-01-09T23:20:21.126Z,15.20
2023-01-09T23:23:53.324Z,16.17
2023-01-09T23:27:25.181Z,18.10
2023-01-09T23:30:57.711Z,18.13
2023-01-09T23:34:29.760Z,14.82
2023-01-09T23:38:02.261Z,15.00
2023-01-09T23:41:53.600Z,15.77
2023-01-09T23:45:25.906Z,16.88
2023-01-09T23:48:57.898Z,16.80
2023-01-09T23:52:29.965Z,17.60
2023-01-09T23:56:03.099Z,16.45
2023-01-09T23:59:35.133Z,16.57
